Time;durP1;ratioP1;P1;durP2;ratioP2;P2;SDS_P1;SDS_P2;PMS_P1;PMS_P2;Temp;Humidity;BMP_temperature;BMP_pressure;BME280_temperature;BME280_humidity;BME280_pressure;Samples;Min_cycle;Max_cycle;Signal;HPM_P1;HPM_P2
2023/01/29 00:02:18;;;;;;;35.78;17.02;;;;;;;;;;5061782;28;20411;-82
2023/01/29 00:04:50;;;;;;;40.20;16.67;;;;;;;;;;5063189;28;20417;-82
2023/01/29 00:07:25;;;;;;;37.20;17.00;;;;;;;;;;5058132;28;20417;-82
2023/01/29 00:09:57;;;;;;;35.53;15.57;;;;;;;;;;5058801;28;20424;-82
2023/01/29 00:12:30;;;;;;;33.05;16.30;;;;;;;;;;5058142;28;20869;-82
2023/01/29 00:15:03;;;;;;;35.85;16.25;;;;;;;;;;5075578;28;20436;-83
2023/01/29 00:17:36;;;;;;;37.30;16.90;;;;;;;;;;5071933;28;20417;-82
2023/01/29 00:20:09;;;;;;;35.08;16.25;;;;;;;;;;5059482;28;20425;-82
2023/01/29 00:22:38;;;;;;;34.60;16.42;;;;;;;;;;5060444;28;20413;-83
2023/01/29 00:25:07;;;;;;;36.10;16.92;;;;;;;;;;5058442;28;20436;-83
2023/01/29 00:27:39;;;;;;;34.78;16.30;;;;;;;;;;5056053;28;20430;-82
2023/01/29 00:30:11;;;;;;;37.33;16.85;;;;;;;;;;5076258;28;20913;-82
2023/01/29 00:32:39;;;;;;;36.40;16.40;;;;;;;;;;5063632;28;20757;-82
2023/01/29 00:35:08;;;;;;;36.30;16.95;;;;;;;;;;5064742;28;20426;-83
2023/01/29 00:37:42;;;;;;;35.20;16.50;;;;;;;;;;5077288;28;20891;-83
2023/01/29 00:40:11;;;;;;;35.42;16.05;;;;;;;;;;5079327;28;20425;-83
2023/01/29 00:45:35;;;;;;;37.75;16.88;;;;;;;;;;5062235;28;20421;-82
2023/01/29 00:48:03;;;;;;;38.55;16.30;;;;;;;;;;5078396;28;20422;-83
2023/01/29 00:50:36;;;;;;;35.40;16.73;;;;;;;;;;5064556;28;20419;-82
2023/01/29 00:53:10;;;;;;;33.75;15.93;;;;;;;;;;5061992;28;20421;-82
2023/01/29 00:55:44;;;;;;;34.42;16.60;;;;;;;;;;5075513;28;20429;-82
2023/01/29 00:58:21;;;;;;;38.35;17.45;;;;;;;;;;5062726;28;20911;-82
2023/01/29 01:00:49;;;;;;;35.47;16.63;;;;;;;;;;5069331;28;20421;-82
2023/01/29 01:03:16;;;;;;;36.83;17.08;;;;;;;;;;5061403;28;20430;-82
2023/01/29 01:05:49;;;;;;;33.42;16.02;;;;;;;;;;5063873;28;20438;-82
2023/01/29 01:11:13;;;;;;;33.38;16.13;;;;;;;;;;5064230;28;20428;-82
2023/01/29 01:13:41;;;;;;;34.92;15.77;;;;;;;;;;5063327;28;20849;-82
2023/01/29 01:16:15;;;;;;;34.55;16.05;;;;;;;;;;5061983;28;20423;-82
2023/01/29 01:18:48;;;;;;;33.88;16.25;;;;;;;;;;5076712;28;20433;-82
2023/01/29 01:21:21;;;;;;;30.08;14.85;;;;;;;;;;5061458;28;20428;-82
2023/01/29 01:23:55;;;;;;;34.33;15.82;;;;;;;;;;5077070;28;20421;-83
2023/01/29 01:26:28;;;;;;;35.25;15.55;;;;;;;;;;5059683;28;20429;-81
2023/01/29 01:28:55;;;;;;;32.45;15.98;;;;;;;;;;5061682;28;20407;-83
2023/01/29 01:31:23;;;;;;;33.92;16.52;;;;;;;;;;5061065;28;20450;-81
2023/01/29 01:33:56;;;;;;;33.43;15.70;;;;;;;;;;5060560;28;20954;-81
2023/01/29 01:36:25;;;;;;;38.53;15.68;;;;;;;;;;5059522;28;20429;-82
2023/01/29 01:38:59;;;;;;;33.38;16.00;;;;;;;;;;5081249;28;20431;-82
2023/01/29 01:41:27;;;;;;;31.50;15.53;;;;;;;;;;5064132;28;20433;-81
2023/01/29 01:44:01;;;;;;;36.53;16.87;;;;;;;;;;5056782;28;20427;-82
2023/01/29 01:46:35;;;;;;;36.10;16.75;;;;;;;;;;5061790;28;20878;-82
2023/01/29 01:49:05;;;;;;;36.15;16.35;;;;;;;;;;5062675;28;20421;-82
2023/01/29 01:51:35;;;;;;;37.65;17.23;;;;;;;;;;5060005;28;20409;-82
2023/01/29 01:54:10;;;;;;;36.17;17.23;;;;;;;;;;5061487;28;20421;-82
2023/01/29 01:56:45;;;;;;;33.55;16.40;;;;;;;;;;5074601;28;20908;-82
2023/01/29 01:59:18;;;;;;;35.78;16.33;;;;;;;;;;5059046;28;20443;-82
2023/01/29 02:01:53;;;;;;;34.00;16.25;;;;;;;;;;5056981;28;20422;-82
2023/01/29 02:10:03;;;;;;;35.10;16.43;;;;;;;;;;5062830;28;20428;-82
2023/01/29 02:12:31;;;;;;;37.15;17.77;;;;;;;;;;5059404;28;20443;-82
2023/01/29 02:15:05;;;;;;;35.50;16.73;;;;;;;;;;5059780;28;20737;-82
2023/01/29 02:17:38;;;;;;;33.65;16.77;;;;;;;;;;5078684;28;20774;-82
2023/01/29 02:20:15;;;;;;;35.05;16.42;;;;;;;;;;5058756;28;21226;-82
2023/01/29 02:23:05;;;;;;;30.95;15.75;;;;;;;;;;5060457;28;20436;-82
2023/01/29 02:25:56;;;;;;;37.75;16.58;;;;;;;;;;5021987;28;20781;-82
2023/01/29 02:28:37;;;;;;;38.28;16.50;;;;;;;;;;5074480;28;20439;-82
2023/01/29 02:31:14;;;;;;;34.92;15.68;;;;;;;;;;5060896;28;20407;-82
2023/01/29 02:33:51;;;;;;;34.80;16.45;;;;;;;;;;5079536;28;20423;-82
2023/01/29 02:36:28;;;;;;;33.05;16.42;;;;;;;;;;5059429;28;20760;-82
2023/01/29 02:39:04;;;;;;;33.20;16.50;;;;;;;;;;5058325;28;20860;-82
2023/01/29 02:41:40;;;;;;;35.88;16.80;;;;;;;;;;5058722;28;20423;-83
2023/01/29 02:44:19;;;;;;;36.27;16.60;;;;;;;;;;5060851;28;20860;-82
2023/01/29 02:46:56;;;;;;;33.75;16.88;;;;;;;;;;5058717;28;20788;-82
2023/01/29 02:49:30;;;;;;;36.58;17.45;;;;;;;;;;5070491;28;20798;-82
2023/01/29 02:52:00;;;;;;;37.23;16.80;;;;;;;;;;5056605;28;20420;-82
2023/01/29 02:54:37;;;;;;;34.75;17.25;;;;;;;;;;5075776;28;20434;-82
2023/01/29 02:57:15;;;;;;;35.40;17.23;;;;;;;;;;5056637;28;20435;-82
2023/01/29 02:59:54;;;;;;;34.38;16.45;;;;;;;;;;5074039;28;20425;-82
2023/01/29 03:02:30;;;;;;;38.45;17.38;;;;;;;;;;5056680;28;20448;-82
2023/01/29 03:04:59;;;;;;;35.10;17.35;;;;;;;;;;5074439;28;20417;-82
2023/01/29 03:07:41;;;;;;;32.70;16.63;;;;;;;;;;5057028;28;20480;-82
2023/01/29 03:10:25;;;;;;;35.97;17.40;;;;;;;;;;5059616;28;20419;-83
2023/01/29 03:13:00;;;;;;;36.13;16.90;;;;;;;;;;5058233;28;20421;-82
2023/01/29 03:15:41;;;;;;;31.92;16.98;;;;;;;;;;5056968;28;20424;-82
2023/01/29 03:18:29;;;;;;;29.70;15.30;;;;;;;;;;5059920;28;20923;-82
2023/01/29 03:21:02;;;;;;;32.75;15.98;;;;;;;;;;5076134;28;20443;-82
2023/01/29 03:32:06;;;;;;;32.25;16.23;;;;;;;;;;5058043;28;20772;-82
2023/01/29 03:34:42;;;;;;;32.03;15.43;;;;;;;;;;5059746;28;20430;-82
2023/01/29 03:37:15;;;;;;;31.83;16.08;;;;;;;;;;5061271;28;20928;-82
2023/01/29 03:39:43;;;;;;;34.40;16.92;;;;;;;;;;5067028;28;20417;-82
2023/01/29 03:42:16;;;;;;;33.90;16.77;;;;;;;;;;5076308;28;20432;-82
2023/01/29 03:44:47;;;;;;;36.13;16.80;;;;;;;;;;5059635;28;20431;-82
2023/01/29 03:47:34;;;;;;;35.67;16.75;;;;;;;;;;5061779;28;20411;-83
2023/01/29 03:50:10;;;;;;;36.03;17.40;;;;;;;;;;5057612;28;20434;-82
2023/01/29 03:52:40;;;;;;;31.40;16.17;;;;;;;;;;5073168;28;20430;-82
2023/01/29 03:55:15;;;;;;;31.98;16.10;;;;;;;;;;5062440;28;20439;-82
2023/01/29 03:57:54;;;;;;;37.22;17.23;;;;;;;;;;5074816;28;20500;-82
2023/01/29 04:00:28;;;;;;;37.97;17.30;;;;;;;;;;5058803;28;20435;-82
2023/01/29 04:03:07;;;;;;;36.50;17.85;;;;;;;;;;5057898;28;20757;-82
2023/01/29 04:05:43;;;;;;;36.45;17.55;;;;;;;;;;5076970;28;20778;-82
2023/01/29 04:08:26;;;;;;;39.37;17.63;;;;;;;;;;5080044;28;20517;-82
2023/01/29 04:11:03;;;;;;;37.92;17.00;;;;;;;;;;5064598;28;20751;-82
2023/01/29 04:13:32;;;;;;;38.45;18.48;;;;;;;;;;5066287;28;20422;-83
2023/01/29 04:16:07;;;;;;;36.83;18.02;;;;;;;;;;5064831;28;20431;-82
2023/01/29 04:19:08;;;;;;;40.60;18.25;;;;;;;;;;5044529;28;20433;-82
2023/01/29 04:21:41;;;;;;;39.17;17.67;;;;;;;;;;5065544;28;20444;-82
2023/01/29 04:24:15;;;;;;;40.78;18.20;;;;;;;;;;5063930;28;20420;-82
2023/01/29 04:26:50;;;;;;;34.58;17.55;;;;;;;;;;5067785;28;21002;-82
2023/01/29 04:29:30;;;;;;;35.23;17.33;;;;;;;;;;5062250;28;20438;-82
2023/01/29 04:32:07;;;;;;;36.95;16.95;;;;;;;;;;5065963;28;20415;-82
2023/01/29 04:34:50;;;;;;;34.78;17.48;;;;;;;;;;5064356;28;20890;-82
2023/01/29 04:37:30;;;;;;;35.80;17.05;;;;;;;;;;5082365;28;20415;-82
2023/01/29 04:40:11;;;;;;;33.90;16.45;;;;;;;;;;5064929;28;20421;-82
2023/01/29 04:42:44;;;;;;;38.22;17.02;;;;;;;;;;5066463;28;20430;-82
2023/01/29 04:45:16;;;;;;;33.35;16.80;;;;;;;;;;5080427;28;20788;-82
2023/01/29 04:47:50;;;;;;;32.10;16.75;;;;;;;;;;5064586;28;20426;-82
2023/01/29 04:50:23;;;;;;;32.03;16.37;;;;;;;;;;5066037;28;20461;-82
2023/01/29 04:53:02;;;;;;;32.55;16.05;;;;;;;;;;5065311;28;20423;-81
2023/01/29 04:55:39;;;;;;;32.17;16.37;;;;;;;;;;5065540;28;20422;-81
2023/01/29 04:58:09;;;;;;;30.55;15.95;;;;;;;;;;5063466;28;20432;-82
2023/01/29 05:00:43;;;;;;;29.90;16.40;;;;;;;;;;5065783;28;20438;-82
2023/01/29 05:03:16;;;;;;;27.70;14.93;;;;;;;;;;5063527;28;20776;-82
2023/01/29 05:05:51;;;;;;;27.55;14.90;;;;;;;;;;5065992;28;20419;-82
2023/01/29 05:08:24;;;;;;;30.13;14.03;;;;;;;;;;5068575;28;20420;-81
2023/01/29 05:10:58;;;;;;;29.77;14.50;;;;;;;;;;5064159;28;20413;-82
2023/01/29 05:13:30;;;;;;;26.27;13.75;;;;;;;;;;5064437;28;20430;-82
2023/01/29 05:16:01;;;;;;;24.55;13.88;;;;;;;;;;5066194;28;20431;-82
2023/01/29 05:18:29;;;;;;;27.05;13.63;;;;;;;;;;5063550;28;20423;-82
2023/01/29 05:21:01;;;;;;;26.30;13.70;;;;;;;;;;5064321;28;20417;-82
2023/01/29 05:23:34;;;;;;;25.38;13.15;;;;;;;;;;5062310;28;20430;-82
2023/01/29 05:26:06;;;;;;;24.55;13.20;;;;;;;;;;5062192;28;20428;-82
2023/01/29 05:28:38;;;;;;;23.27;13.02;;;;;;;;;;5079599;28;20424;-82
2023/01/29 05:31:07;;;;;;;23.13;12.18;;;;;;;;;;5078013;28;20426;-81
2023/01/29 05:33:40;;;;;;;22.67;12.20;;;;;;;;;;5060842;28;20407;-81
2023/01/29 05:36:14;;;;;;;21.85;11.50;;;;;;;;;;5061704;28;20426;-81
2023/01/29 05:38:47;;;;;;;22.55;11.98;;;;;;;;;;5058675;28;20433;-83
2023/01/29 05:41:16;;;;;;;20.92;11.73;;;;;;;;;;5064160;28;20408;-82
2023/01/29 05:43:44;;;;;;;23.25;12.13;;;;;;;;;;5062169;28;20423;-82
2023/01/29 05:46:17;;;;;;;21.63;11.27;;;;;;;;;;5062135;28;20419;-81
2023/01/29 05:48:51;;;;;;;21.65;11.48;;;;;;;;;;5077126;28;20903;-81
2023/01/29 05:51:26;;;;;;;19.75;10.68;;;;;;;;;;5063677;28;20427;-81
2023/01/29 05:53:58;;;;;;;21.02;10.75;;;;;;;;;;5060797;28;20888;-82
2023/01/29 05:56:26;;;;;;;20.10;10.98;;;;;;;;;;5062726;28;20414;-81
2023/01/29 05:58:54;;;;;;;20.90;11.32;;;;;;;;;;5062178;28;20430;-82
2023/01/29 06:01:27;;;;;;;22.63;11.48;;;;;;;;;;5054951;28;20424;-82
2023/01/29 06:04:00;;;;;;;21.70;11.33;;;;;;;;;;5061338;28;20470;-82
2023/01/29 06:06:29;;;;;;;21.55;11.55;;;;;;;;;;5058321;28;20415;-82
2023/01/29 06:09:02;;;;;;;19.98;11.27;;;;;;;;;;5062766;28;20930;-81
2023/01/29 06:11:30;;;;;;;21.65;11.50;;;;;;;;;;5060609;28;20405;-81
2023/01/29 06:14:02;;;;;;;20.25;11.15;;;;;;;;;;5073256;28;20420;-81
2023/01/29 06:16:35;;;;;;;19.75;10.68;;;;;;;;;;5074344;28;20420;-81
2023/01/29 06:19:03;;;;;;;18.63;10.68;;;;;;;;;;5067400;28;20943;-81
2023/01/29 06:21:37;;;;;;;22.10;11.88;;;;;;;;;;5059047;28;20907;-82
2023/01/29 06:24:05;;;;;;;21.40;11.32;;;;;;;;;;5058368;28;20436;-81
2023/01/29 06:26:38;;;;;;;24.10;12.27;;;;;;;;;;5061870;28;20428;-81
2023/01/29 06:29:11;;;;;;;23.60;12.30;;;;;;;;;;5059500;28;20419;-81
2023/01/29 06:31:43;;;;;;;23.50;12.90;;;;;;;;;;5060934;28;20784;-81
2023/01/29 06:34:16;;;;;;;27.60;13.88;;;;;;;;;;5060037;28;20432;-81
2023/01/29 06:36:45;;;;;;;25.75;13.65;;;;;;;;;;5060972;28;20411;-81
2023/01/29 06:39:13;;;;;;;26.60;14.00;;;;;;;;;;5060476;28;20430;-81
2023/01/29 06:41:41;;;;;;;24.15;13.25;;;;;;;;;;5066902;28;20438;-81
2023/01/29 06:44:14;;;;;;;25.30;13.52;;;;;;;;;;5059296;28;20872;-81
2023/01/29 06:46:46;;;;;;;26.98;13.60;;;;;;;;;;5061066;28;20436;-81
2023/01/29 06:49:19;;;;;;;26.48;13.48;;;;;;;;;;5060335;28;20423;-81
2023/01/29 06:51:53;;;;;;;26.27;12.90;;;;;;;;;;5059865;28;20421;-82
2023/01/29 06:54:21;;;;;;;26.92;13.32;;;;;;;;;;5076492;28;20433;-81
2023/01/29 06:56:55;;;;;;;27.90;13.10;;;;;;;;;;5060808;28;20419;-81
2023/01/29 06:59:27;;;;;;;23.98;12.75;;;;;;;;;;5058529;28;20432;-82
2023/01/29 07:02:00;;;;;;;24.95;12.68;;;;;;;;;;5058554;28;20422;-81
2023/01/29 07:04:34;;;;;;;26.70;13.00;;;;;;;;;;5058962;28;20433;-81
2023/01/29 07:07:11;;;;;;;23.55;12.40;;;;;;;;;;5059376;28;20424;-82
2023/01/29 07:09:40;;;;;;;25.25;12.75;;;;;;;;;;5055857;28;20429;-81
2023/01/29 07:12:13;;;;;;;24.23;11.98;;;;;;;;;;5060500;28;20411;-82
2023/01/29 07:14:45;;;;;;;23.20;11.90;;;;;;;;;;5066540;28;20425;-81
2023/01/29 07:17:19;;;;;;;23.67;11.98;;;;;;;;;;5074625;28;20758;-82
2023/01/29 07:19:52;;;;;;;25.25;11.85;;;;;;;;;;5059619;28;20425;-82
2023/01/29 07:22:21;;;;;;;24.75;12.07;;;;;;;;;;5060676;28;20419;-82
2023/01/29 07:24:54;;;;;;;24.70;12.07;;;;;;;;;;5059159;28;20905;-82
2023/01/29 07:27:27;;;;;;;27.75;13.27;;;;;;;;;;5062447;28;20411;-82
2023/01/29 07:30:00;;;;;;;25.27;12.68;;;;;;;;;;5061928;28;20429;-83
2023/01/29 07:32:33;;;;;;;29.35;13.63;;;;;;;;;;5055363;28;20423;-83
2023/01/29 07:35:00;;;;;;;29.40;13.65;;;;;;;;;;5075327;28;20427;-82
2023/01/29 07:37:34;;;;;;;31.60;14.68;;;;;;;;;;5059174;28;20423;-83
2023/01/29 07:40:10;;;;;;;32.20;15.38;;;;;;;;;;5058961;28;20420;-83
2023/01/29 07:42:38;;;;;;;32.25;14.55;;;;;;;;;;5057341;28;20414;-84
2023/01/29 07:45:11;;;;;;;33.80;14.70;;;;;;;;;;5055247;28;20791;-84
2023/01/29 07:47:39;;;;;;;30.77;14.27;;;;;;;;;;5060525;28;20774;-83
2023/01/29 07:50:12;;;;;;;31.83;14.27;;;;;;;;;;5061415;28;20734;-83
2023/01/29 07:52:41;;;;;;;29.73;13.77;;;;;;;;;;5054462;28;20421;-83
2023/01/29 07:55:14;;;;;;;32.95;14.95;;;;;;;;;;5054336;28;20428;-83
2023/01/29 07:57:42;;;;;;;27.87;13.67;;;;;;;;;;5057671;28;20476;-83
2023/01/29 08:00:11;;;;;;;28.53;13.87;;;;;;;;;;5063486;28;20411;-83
2023/01/29 08:02:44;;;;;;;31.25;14.27;;;;;;;;;;5072403;28;20442;-84
2023/01/29 08:05:12;;;;;;;30.65;14.07;;;;;;;;;;5065396;28;20880;-81
2023/01/29 08:07:39;;;;;;;32.88;14.63;;;;;;;;;;5061007;28;20419;-83
2023/01/29 08:10:14;;;;;;;31.17;14.18;;;;;;;;;;5067658;28;20780;-81
2023/01/29 08:12:46;;;;;;;30.65;14.20;;;;;;;;;;5061840;28;20423;-82
2023/01/29 08:15:19;;;;;;;33.60;14.88;;;;;;;;;;5066530;28;20415;-81
2023/01/29 08:17:47;;;;;;;31.25;14.68;;;;;;;;;;5065377;28;20423;-81
2023/01/29 08:20:20;;;;;;;30.33;14.15;;;;;;;;;;5066859;28;20432;-82
2023/01/29 08:22:58;;;;;;;30.80;14.67;;;;;;;;;;5077295;28;20946;-81
2023/01/29 08:25:27;;;;;;;32.13;15.07;;;;;;;;;;5074705;28;20431;-81
2023/01/29 08:27:56;;;;;;;30.05;14.80;;;;;;;;;;5063374;28;20419;-83
2023/01/29 08:30:23;;;;;;;30.67;14.02;;;;;;;;;;5077596;28;20911;-82
2023/01/29 08:32:56;;;;;;;30.08;14.80;;;;;;;;;;5064715;28;20421;-83
2023/01/29 08:35:29;;;;;;;29.80;14.65;;;;;;;;;;5057323;28;20729;-83
2023/01/29 08:38:03;;;;;;;31.17;14.40;;;;;;;;;;5058841;28;20429;-84
2023/01/29 08:40:37;;;;;;;31.77;15.27;;;;;;;;;;5063747;28;20440;-82
2023/01/29 08:43:11;;;;;;;29.45;14.02;;;;;;;;;;5077316;28;20430;-82
2023/01/29 08:45:40;;;;;;;29.92;14.65;;;;;;;;;;5062547;28;20424;-82
2023/01/29 08:48:08;;;;;;;33.23;15.07;;;;;;;;;;5078936;28;20427;-82
2023/01/29 08:50:40;;;;;;;34.20;16.00;;;;;;;;;;5059135;28;20424;-82
2023/01/29 08:53:13;;;;;;;32.50;15.38;;;;;;;;;;5064891;28;20423;-82
2023/01/29 08:55:47;;;;;;;33.55;16.58;;;;;;;;;;5077888;28;20436;-83
2023/01/29 08:58:15;;;;;;;32.93;16.50;;;;;;;;;;5080755;28;20489;-83
2023/01/29 09:00:43;;;;;;;30.30;16.40;;;;;;;;;;5071258;28;20415;-85
2023/01/29 09:03:11;;;;;;;32.75;16.77;;;;;;;;;;5070979;28;20440;-84
2023/01/29 09:05:39;;;;;;;32.90;16.55;;;;;;;;;;5060691;28;20435;-84
2023/01/29 09:08:12;;;;;;;37.55;17.10;;;;;;;;;;5064199;28;20428;-83
2023/01/29 09:10:45;;;;;;;32.63;16.58;;;;;;;;;;5067051;28;20431;-83
2023/01/29 09:13:14;;;;;;;34.72;17.02;;;;;;;;;;5061886;28;20433;-82
2023/01/29 09:15:42;;;;;;;35.08;17.20;;;;;;;;;;5063246;28;20420;-82
2023/01/29 09:18:15;;;;;;;34.53;17.55;;;;;;;;;;5063157;28;20425;-82
2023/01/29 09:20:42;;;;;;;33.97;17.17;;;;;;;;;;5057533;28;20426;-82
2023/01/29 09:23:15;;;;;;;35.75;18.35;;;;;;;;;;5061029;28;20427;-82
2023/01/29 09:25:43;;;;;;;38.42;18.05;;;;;;;;;;5059019;28;20432;-82
2023/01/29 09:28:11;;;;;;;37.35;18.50;;;;;;;;;;5062243;28;20427;-82
2023/01/29 09:30:40;;;;;;;39.05;18.77;;;;;;;;;;5066609;28;20924;-82
2023/01/29 09:33:13;;;;;;;36.40;18.67;;;;;;;;;;5055596;28;20436;-81
2023/01/29 09:35:46;;;;;;;37.15;18.20;;;;;;;;;;5057971;28;20438;-82
2023/01/29 09:38:19;;;;;;;37.85;18.85;;;;;;;;;;5058982;28;20426;-81
2023/01/29 09:40:56;;;;;;;42.50;20.45;;;;;;;;;;5061015;28;20423;-82
2023/01/29 09:43:37;;;;;;;40.92;19.35;;;;;;;;;;5060781;28;20423;-81
2023/01/29 09:46:15;;;;;;;40.78;18.92;;;;;;;;;;5076232;28;20437;-83
2023/01/29 09:48:50;;;;;;;40.92;19.05;;;;;;;;;;5060075;28;20429;-83
2023/01/29 09:51:23;;;;;;;38.85;19.50;;;;;;;;;;5063960;28;20423;-82
2023/01/29 09:54:03;;;;;;;40.25;19.38;;;;;;;;;;5059914;28;20915;-82
2023/01/29 09:56:31;;;;;;;42.28;19.85;;;;;;;;;;5063411;28;20453;-82
2023/01/29 09:59:04;;;;;;;45.13;20.03;;;;;;;;;;5062688;28;20429;-82
2023/01/29 10:01:38;;;;;;;45.33;21.02;;;;;;;;;;5057538;28;20789;-82
2023/01/29 10:04:29;;;;;;;44.50;21.30;;;;;;;;;;5056596;28;20442;-82
2023/01/29 10:07:10;;;;;;;44.55;21.83;;;;;;;;;;5046282;28;20441;-82
2023/01/29 10:09:50;;;;;;;47.28;21.40;;;;;;;;;;5059943;28;20426;-81
2023/01/29 10:12:24;;;;;;;51.22;22.33;;;;;;;;;;5057693;28;20444;-82
2023/01/29 10:14:57;;;;;;;48.28;22.75;;;;;;;;;;5056853;28;20427;-81
2023/01/29 10:17:33;;;;;;;49.50;21.98;;;;;;;;;;5058325;28;20433;-82
2023/01/29 10:20:20;;;;;;;53.55;22.50;;;;;;;;;;5060347;28;20425;-81
2023/01/29 10:23:02;;;;;;;49.03;21.80;;;;;;;;;;5077275;28;20434;-82
2023/01/29 10:25:37;;;;;;;50.37;22.77;;;;;;;;;;5075957;28;20820;-83
2023/01/29 10:28:14;;;;;;;52.60;23.03;;;;;;;;;;5059798;28;20898;-82
2023/01/29 10:30:48;;;;;;;53.88;23.67;;;;;;;;;;5075443;28;20429;-81
2023/01/29 10:33:21;;;;;;;53.30;23.40;;;;;;;;;;5074723;28;20435;-81
2023/01/29 10:35:51;;;;;;;52.85;23.10;;;;;;;;;;5073999;28;20884;-82
2023/01/29 10:38:29;;;;;;;54.55;23.95;;;;;;;;;;5075109;28;20435;-81
2023/01/29 10:41:07;;;;;;;51.95;23.08;;;;;;;;;;5059151;28;20427;-81
2023/01/29 10:43:38;;;;;;;56.03;24.33;;;;;;;;;;5061325;28;20411;-81
2023/01/29 10:46:11;;;;;;;56.65;23.77;;;;;;;;;;5064369;28;20426;-81
2023/01/29 10:48:54;;;;;;;53.65;23.80;;;;;;;;;;5065635;28;20413;-80
2023/01/29 10:51:42;;;;;;;56.65;23.98;;;;;;;;;;5061552;28;20788;-81
2023/01/29 10:54:23;;;;;;;51.15;23.52;;;;;;;;;;5061771;28;21093;-81
2023/01/29 10:57:02;;;;;;;52.20;23.80;;;;;;;;;;5078098;28;20438;-82
2023/01/29 10:59:41;;;;;;;49.58;22.95;;;;;;;;;;5076776;28;20428;-83
2023/01/29 11:02:14;;;;;;;52.83;26.20;;;;;;;;;;5076155;28;20436;-84
2023/01/29 11:04:43;;;;;;;57.83;24.52;;;;;;;;;;5062055;28;21053;-83
2023/01/29 11:07:17;;;;;;;56.15;25.73;;;;;;;;;;5063479;28;20429;-86
2023/01/29 11:09:54;;;;;;;53.57;24.20;;;;;;;;;;5062755;28;20493;-83
2023/01/29 11:12:29;;;;;;;57.50;26.50;;;;;;;;;;5057120;28;20424;-84
2023/01/29 11:15:05;;;;;;;48.35;23.90;;;;;;;;;;5071854;28;20432;-83
2023/01/29 11:17:38;;;;;;;48.90;24.92;;;;;;;;;;5061938;28;20416;-83
2023/01/29 11:20:25;;;;;;;49.58;23.92;;;;;;;;;;5059501;28;20425;-85
2023/01/29 11:22:59;;;;;;;50.83;23.88;;;;;;;;;;5057793;28;20434;-83
2023/01/29 11:25:32;;;;;;;46.75;23.50;;;;;;;;;;5060122;28;20435;-83
2023/01/29 11:28:05;;;;;;;53.93;24.30;;;;;;;;;;5063371;28;20772;-84
2023/01/29 11:30:39;;;;;;;50.60;24.20;;;;;;;;;;5056776;28;20761;-85
2023/01/29 11:33:18;;;;;;;49.30;24.73;;;;;;;;;;5077106;28;20475;-84
2023/01/29 11:35:52;;;;;;;49.00;23.70;;;;;;;;;;5072795;28;20443;-83
2023/01/29 11:38:26;;;;;;;51.95;23.38;;;;;;;;;;5059307;28;20424;-84
2023/01/29 11:41:04;;;;;;;48.75;25.05;;;;;;;;;;5074621;28;20427;-83
2023/01/29 11:43:32;;;;;;;45.88;23.35;;;;;;;;;;5059941;28;20876;-83
2023/01/29 11:46:06;;;;;;;53.63;26.55;;;;;;;;;;5059646;28;20757;-84
2023/01/29 11:48:40;;;;;;;47.40;23.92;;;;;;;;;;5076372;28;20914;-84
2023/01/29 11:51:21;;;;;;;46.63;23.67;;;;;;;;;;5058384;28;20440;-85
2023/01/29 11:53:51;;;;;;;46.30;23.25;;;;;;;;;;5057354;28;20406;-84
2023/01/29 11:56:27;;;;;;;43.95;22.98;;;;;;;;;;5060164;28;20417;-84
2023/01/29 11:59:03;;;;;;;44.85;23.33;;;;;;;;;;5077438;28;20432;-84
2023/01/29 12:01:33;;;;;;;49.17;23.92;;;;;;;;;;5073508;28;20424;-84
2023/01/29 12:04:01;;;;;;;46.83;23.07;;;;;;;;;;5060847;28;20411;-84
2023/01/29 12:06:33;;;;;;;43.50;22.42;;;;;;;;;;5078363;28;20937;-83
2023/01/29 12:09:10;;;;;;;43.10;22.30;;;;;;;;;;5062210;28;20779;-84
2023/01/29 12:11:43;;;;;;;44.72;22.88;;;;;;;;;;5063654;28;20427;-84
2023/01/29 12:14:24;;;;;;;47.55;22.63;;;;;;;;;;5057889;28;20743;-83
2023/01/29 12:16:54;;;;;;;44.60;22.50;;;;;;;;;;5056708;28;20433;-84
2023/01/29 12:19:29;;;;;;;41.30;21.35;;;;;;;;;;5061655;28;20432;-84
2023/01/29 12:22:00;;;;;;;44.00;21.80;;;;;;;;;;5059686;28;20489;-82
2023/01/29 12:24:35;;;;;;;41.00;20.73;;;;;;;;;;5059905;28;20409;-85
2023/01/29 12:27:12;;;;;;;39.30;20.27;;;;;;;;;;5060912;28;20833;-83
2023/01/29 12:29:44;;;;;;;39.80;21.05;;;;;;;;;;5066709;28;20887;-84
2023/01/29 12:32:23;;;;;;;41.53;21.17;;;;;;;;;;5081172;28;20434;-83
2023/01/29 12:35:01;;;;;;;39.70;21.20;;;;;;;;;;5078049;28;21478;-85
2023/01/29 12:37:38;;;;;;;41.87;21.17;;;;;;;;;;5064433;28;20536;-84
2023/01/29 12:40:12;;;;;;;39.97;20.48;;;;;;;;;;5082137;28;20422;-85
2023/01/29 12:42:47;;;;;;;38.47;20.37;;;;;;;;;;5081598;28;20427;-85
2023/01/29 12:45:17;;;;;;;34.85;18.98;;;;;;;;;;5062563;28;20930;-84
2023/01/29 12:47:46;;;;;;;38.03;20.48;;;;;;;;;;5065610;28;20428;-84
2023/01/29 12:50:17;;;;;;;39.05;19.88;;;;;;;;;;5058801;28;20431;-84
2023/01/29 12:52:53;;;;;;;38.33;20.40;;;;;;;;;;5065326;28;20419;-85
2023/01/29 12:55:22;;;;;;;40.85;20.73;;;;;;;;;;5065641;28;20419;-84
2023/01/29 12:57:56;;;;;;;39.67;20.58;;;;;;;;;;5062346;28;20421;-84
2023/01/29 13:00:26;;;;;;;42.45;20.60;;;;;;;;;;5058139;28;20443;-83
2023/01/29 13:03:00;;;;;;;41.97;20.65;;;;;;;;;;5060928;28;20431;-85
2023/01/29 13:05:35;;;;;;;37.92;19.35;;;;;;;;;;5060773;28;20438;-83
2023/01/29 13:08:14;;;;;;;37.95;20.15;;;;;;;;;;5060675;28;20431;-84
2023/01/29 13:10:49;;;;;;;40.78;19.50;;;;;;;;;;5063128;28;20433;-83
2023/01/29 13:13:22;;;;;;;39.25;20.15;;;;;;;;;;5063154;28;20428;-85
2023/01/29 13:15:50;;;;;;;40.45;20.13;;;;;;;;;;5064092;28;20427;-83
2023/01/29 13:18:41;;;;;;;39.33;19.65;;;;;;;;;;5069725;28;20419;-84
2023/01/29 13:21:12;;;;;;;40.17;19.02;;;;;;;;;;5076422;28;20908;-82
2023/01/29 13:23:43;;;;;;;37.43;19.33;;;;;;;;;;5066417;28;20431;-83
2023/01/29 13:26:17;;;;;;;37.70;20.45;;;;;;;;;;5060222;28;20416;-83
2023/01/29 13:28:51;;;;;;;36.17;19.45;;;;;;;;;;5065476;28;20419;-83
2023/01/29 13:31:27;;;;;;;39.55;20.20;;;;;;;;;;5064472;28;20434;-84
2023/01/29 13:34:07;;;;;;;37.03;19.92;;;;;;;;;;5064605;28;20424;-85
2023/01/29 13:36:42;;;;;;;36.23;19.33;;;;;;;;;;5060527;28;20433;-85
2023/01/29 13:39:19;;;;;;;40.35;19.65;;;;;;;;;;5061064;28;20423;-83
2023/01/29 13:41:47;;;;;;;37.17;19.40;;;;;;;;;;5059168;28;20447;-84
2023/01/29 13:44:21;;;;;;;38.03;20.00;;;;;;;;;;5052807;28;20934;-83
2023/01/29 13:46:56;;;;;;;39.20;20.17;;;;;;;;;;5054945;28;20434;-83
2023/01/29 13:49:36;;;;;;;38.05;20.08;;;;;;;;;;5049717;28;20427;-84
2023/01/29 13:52:30;;;;;;;34.07;18.93;;;;;;;;;;5055447;28;20511;-84
2023/01/29 13:55:05;;;;;;;37.87;19.80;;;;;;;;;;5039859;28;20915;-83
2023/01/29 13:57:49;;;;;;;35.78;19.42;;;;;;;;;;5046470;28;20423;-82
2023/01/29 14:00:44;;;;;;;38.55;19.88;;;;;;;;;;5051299;28;21623;-82
2023/01/29 14:03:47;;;;;;;36.15;18.92;;;;;;;;;;5039907;28;20411;-83
2023/01/29 14:06:29;;;;;;;38.05;20.08;;;;;;;;;;4936912;28;20444;-82
2023/01/29 14:09:02;;;;;;;38.03;19.80;;;;;;;;;;5033964;28;20749;-82
2023/01/29 14:11:35;;;;;;;37.88;20.02;;;;;;;;;;5046629;28;20419;-83
2023/01/29 14:14:23;;;;;;;35.20;19.25;;;;;;;;;;5050598;28;20438;-83
2023/01/29 14:17:00;;;;;;;36.30;18.63;;;;;;;;;;5040570;28;20422;-83
2023/01/29 14:19:33;;;;;;;38.10;18.67;;;;;;;;;;5052878;28;20490;-82
2023/01/29 14:22:06;;;;;;;36.30;19.17;;;;;;;;;;5044097;28;20424;-84
2023/01/29 14:24:34;;;;;;;37.50;19.10;;;;;;;;;;5049784;28;20451;-83
2023/01/29 14:27:19;;;;;;;33.75;18.05;;;;;;;;;;5063404;28;21277;-82
2023/01/29 14:29:47;;;;;;;36.47;19.75;;;;;;;;;;5048857;28;21000;-83
2023/01/29 14:32:19;;;;;;;36.33;19.67;;;;;;;;;;5058084;28;20823;-83
2023/01/29 14:34:50;;;;;;;37.42;19.05;;;;;;;;;;5048982;28;20764;-81
2023/01/29 14:37:27;;;;;;;40.65;19.80;;;;;;;;;;5048696;28;20450;-84
2023/01/29 14:39:57;;;;;;;37.03;19.20;;;;;;;;;;5046158;28;20416;-85
2023/01/29 14:42:27;;;;;;;40.90;19.67;;;;;;;;;;5047599;28;20431;-82
2023/01/29 14:45:02;;;;;;;39.15;19.85;;;;;;;;;;5039482;28;20431;-82
2023/01/29 14:47:54;;;;;;;37.00;19.50;;;;;;;;;;5051360;28;20426;-84
2023/01/29 14:50:41;;;;;;;40.53;19.80;;;;;;;;;;5039375;28;20427;-83
2023/01/29 14:53:17;;;;;;;38.55;18.85;;;;;;;;;;5042765;28;20434;-83
2023/01/29 14:55:52;;;;;;;38.40;19.97;;;;;;;;;;5054138;28;20416;-83
2023/01/29 14:58:23;;;;;;;41.70;20.45;;;;;;;;;;5051754;28;20411;-84
2023/01/29 15:00:54;;;;;;;37.53;20.48;;;;;;;;;;5043831;28;20439;-84
2023/01/29 15:03:27;;;;;;;40.03;20.00;;;;;;;;;;5039863;28;21305;-83
2023/01/29 15:05:57;;;;;;;38.10;19.73;;;;;;;;;;5059434;28;20446;-82
2023/01/29 15:08:28;;;;;;;35.42;18.92;;;;;;;;;;5047524;28;20431;-83
2023/01/29 15:13:57;;;;;;;36.38;19.52;;;;;;;;;;5047026;28;20415;-84
2023/01/29 15:16:26;;;;;;;37.92;19.83;;;;;;;;;;5049251;28;20423;-83
2023/01/29 15:18:56;;;;;;;38.35;20.08;;;;;;;;;;5053552;28;21108;-83